createdAt,value
2023-04-20T00:01:32.777Z,29.23
2023-04-20T00:04:01.156Z,27.67
2023-04-20T00:06:29.913Z,21.77
2023-04-20T00:08:57.894Z,22.80
2023-04-20T00:11:26.860Z,22.37
2023-04-20T00:13:56.114Z,22.83
2023-04-20T00:16:24.529Z,29.67
2023-04-20T00:18:52.626Z,25.73
2023-04-20T00:21:24.512Z,25.73
2023-04-20T00:23:52.989Z,27.03
2023-04-20T00:26:21.193Z,24.07
2023-04-20T00:28:49.234Z,21.20
2023-04-20T00:31:18.838Z,18.37
2023-04-20T00:33:46.829Z,16.77
2023-04-20T00:36:14.896Z,16.33
2023-04-20T00:38:42.802Z,14.20
2023-04-20T00:41:10.762Z,13.93
2023-04-20T00:43:38.859Z,15.90
2023-04-20T00:46:07.059Z,15.23
2023-04-20T00:48:36.348Z,16.70
2023-04-20T00:51:04.723Z,17.03
2023-04-20T00:53:32.854Z,19.43
2023-04-20T00:56:01.105Z,15.53
2023-04-20T00:58:29.492Z,17.33
2023-04-20T01:00:57.573Z,16.23
2023-04-20T01:03:25.816Z,13.90
2023-04-20T01:05:55.288Z,18.77
2023-04-20T01:08:27.381Z,17.47
2023-04-20T01:10:56.165Z,21.70
2023-04-20T01:13:24.428Z,15.33
2023-04-20T01:15:52.500Z,16.47
2023-04-20T01:18:20.692Z,17.40
2023-04-20T01:20:48.748Z,17.27
2023-04-20T01:23:18.621Z,19.10
2023-04-20T01:25:46.811Z,17.17
2023-04-20T01:28:14.677Z,15.97
2023-04-20T01:30:42.767Z,14.20
2023-04-20T01:33:10.690Z,18.83
2023-04-20T01:35:38.874Z,16.50
2023-04-20T01:38:06.783Z,19.80
2023-04-20T01:40:36.359Z,15.47
2023-04-20T01:43:04.427Z,16.63
2023-04-20T01:45:32.305Z,15.33
2023-04-20T01:48:01.616Z,13.13
2023-04-20T01:50:29.694Z,19.43
2023-04-20T01:52:57.968Z,15.20
2023-04-20T01:55:25.863Z,14.20
2023-04-20T01:57:55.114Z,15.67
2023-04-20T02:00:23.223Z,13.27
2023-04-20T02:02:51.538Z,19.63
2023-04-20T02:05:19.717Z,16.90
2023-04-20T02:07:47.754Z,14.67
2023-04-20T02:10:15.715Z,13.43
2023-04-20T02:12:43.798Z,13.70
2023-04-20T02:15:13.321Z,10.83
2023-04-20T02:17:41.918Z,13.50
2023-04-20T02:20:10.745Z,12.43
2023-04-20T02:22:39.622Z,9.57
2023-04-20T02:25:10.707Z,12.17
2023-04-20T02:27:38.625Z,13.17
2023-04-20T02:30:08.446Z,11.27
2023-04-20T02:32:37.788Z,10.70
2023-04-20T02:35:06.640Z,8.70
2023-04-20T02:37:34.799Z,8.20
2023-04-20T02:40:02.748Z,8.90
2023-04-20T02:42:31.007Z,8.13
2023-04-20T02:44:59.226Z,10.77
2023-04-20T02:47:27.134Z,8.00
2023-04-20T02:49:56.852Z,6.27
2023-04-20T02:52:24.935Z,6.97
2023-04-20T02:54:52.974Z,7.87
2023-04-20T02:57:20.813Z,6.43
2023-04-20T02:59:48.724Z,9.77
2023-04-20T03:02:16.884Z,8.03
2023-04-20T03:04:45.116Z,8.10
2023-04-20T03:07:16.522Z,10.47
2023-04-20T03:09:44.879Z,7.40
2023-04-20T03:12:12.787Z,6.80
2023-04-20T03:14:40.858Z,5.33
2023-04-20T03:17:08.885Z,7.60
2023-04-20T03:19:37.009Z,8.43
2023-04-20T03:22:04.952Z,10.67
2023-04-20T03:24:35.514Z,9.47
2023-04-20T03:27:03.763Z,10.97
2023-04-20T03:29:31.692Z,7.17
2023-04-20T03:31:59.616Z,8.70
2023-04-20T03:34:28.044Z,12.53
2023-04-20T03:36:55.929Z,8.77
2023-04-20T03:39:23.977Z,12.97
2023-04-20T03:41:53.289Z,13.43
2023-04-20T03:44:21.345Z,12.87
2023-04-20T03:46:49.267Z,13.40
2023-04-20T03:49:17.592Z,12.37
2023-04-20T03:51:45.691Z,12.03
2023-04-20T03:54:13.573Z,10.90
2023-04-20T03:56:41.719Z,10.33
2023-04-20T03:59:10.967Z,7.50
2023-04-20T04:01:39.240Z,9.00
2023-04-20T04:04:07.324Z,13.13
2023-04-20T04:06:35.932Z,11.13
2023-04-20T04:09:03.823Z,10.00
2023-04-20T04:11:31.924Z,14.13
2023-04-20T04:14:00.065Z,10.10
2023-04-20T04:16:29.574Z,9.90
2023-04-20T04:18:57.525Z,9.40
2023-04-20T04:21:25.933Z,7.73
2023-04-20T04:23:53.833Z,10.57
2023-04-20T04:26:24.516Z,9.00
2023-04-20T04:28:52.818Z,8.87
2023-04-20T04:31:21.871Z,9.63
2023-04-20T04:33:51.298Z,11.00
2023-04-20T04:36:19.545Z,9.37
2023-04-20T04:38:48.148Z,9.80
2023-04-20T04:41:16.869Z,11.20
2023-04-20T04:43:45.948Z,8.00
2023-04-20T04:46:14.730Z,11.40
2023-04-20T04:48:43.241Z,8.23
2023-04-20T04:51:13.059Z,9.07
2023-04-20T04:53:44.974Z,12.67
2023-04-20T04:56:13.376Z,9.40
2023-04-20T04:58:41.325Z,8.67
2023-04-20T05:01:09.358Z,9.83
2023-04-20T05:03:37.488Z,10.63
2023-04-20T05:06:05.817Z,13.10
2023-04-20T05:08:35.326Z,10.70
2023-04-20T05:11:03.371Z,12.40
2023-04-20T05:13:31.285Z,10.63
2023-04-20T05:15:59.520Z,11.07
2023-04-20T05:18:27.474Z,11.23
2023-04-20T05:20:55.684Z,9.57
2023-04-20T05:23:23.743Z,16.40
2023-04-20T05:25:53.062Z,8.90
2023-04-20T05:28:21.528Z,11.30
2023-04-20T05:30:49.445Z,11.63
2023-04-20T05:33:17.819Z,9.70
2023-04-20T05:35:45.812Z,10.33
2023-04-20T05:38:14.080Z,11.83
2023-04-20T05:40:41.977Z,9.13
2023-04-20T05:43:11.693Z,11.90
2023-04-20T05:45:39.815Z,11.70
2023-04-20T05:48:07.848Z,10.50
2023-04-20T05:50:36.227Z,11.90
2023-04-20T05:53:04.176Z,12.03
2023-04-20T05:55:32.318Z,8.73
2023-04-20T05:58:00.596Z,10.03
2023-04-20T06:00:29.865Z,12.70
2023-04-20T06:02:58.105Z,12.33
2023-04-20T06:05:26.252Z,12.63
2023-04-20T06:07:54.346Z,11.93
2023-04-20T06:10:22.696Z,13.30
2023-04-20T06:12:50.625Z,9.57
2023-04-20T06:15:18.928Z,12.00
2023-04-20T06:17:48.537Z,10.57
2023-04-20T06:20:16.934Z,11.00
2023-04-20T06:22:45.634Z,9.00
2023-04-20T06:25:14.791Z,9.27
2023-04-20T06:27:42.877Z,8.97
2023-04-20T06:30:11.977Z,8.23
2023-04-20T06:32:39.939Z,10.17
2023-04-20T06:35:10.443Z,6.97
2023-04-20T06:37:38.681Z,7.80
2023-04-20T06:40:09.396Z,8.50
2023-04-20T06:42:37.870Z,7.33
2023-04-20T06:45:06.911Z,9.10
2023-04-20T06:47:35.300Z,8.00
2023-04-20T06:50:05.056Z,11.03
2023-04-20T06:52:34.321Z,9.87
2023-04-20T06:55:02.391Z,9.20
2023-04-20T06:57:30.424Z,7.40
2023-04-20T06:59:58.972Z,10.27
2023-04-20T07:02:27.468Z,8.27
2023-04-20T07:05:01.934Z,11.60
2023-04-20T07:07:30.124Z,10.10
2023-04-20T07:09:59.399Z,10.40
2023-04-20T07:12:27.325Z,7.80
2023-04-20T07:14:55.927Z,10.00
2023-04-20T07:17:23.905Z,9.20
2023-04-20T07:19:52.606Z,9.10
2023-04-20T07:22:20.785Z,7.33
2023-04-20T07:24:48.695Z,10.00
2023-04-20T07:27:18.359Z,8.67
2023-04-20T07:29:46.597Z,9.40
2023-04-20T07:32:14.741Z,10.40
2023-04-20T07:34:42.964Z,10.23
2023-04-20T07:37:11.232Z,14.43
2023-04-20T07:39:39.304Z,14.00
2023-04-20T07:42:07.415Z,8.70
2023-04-20T07:44:36.712Z,11.00
2023-04-20T07:47:05.033Z,12.60
2023-04-20T07:49:33.172Z,10.47
2023-04-20T07:52:13.194Z,10.60
2023-04-20T07:54:44.338Z,10.93
2023-04-20T07:57:12.266Z,12.23
2023-04-20T07:59:41.981Z,9.20
2023-04-20T08:02:09.975Z,9.30
2023-04-20T08:04:39.162Z,10.30
2023-04-20T08:07:07.275Z,11.33
2023-04-20T08:09:35.186Z,9.23
2023-04-20T08:12:03.266Z,10.57
2023-04-20T08:14:31.314Z,11.63
2023-04-20T08:17:00.814Z,9.87
2023-04-20T08:19:28.910Z,12.23
2023-04-20T08:21:57.130Z,12.97
2023-04-20T08:24:25.108Z,8.63
2023-04-20T08:26:53.266Z,12.80
2023-04-20T08:29:21.471Z,10.77
2023-04-20T08:31:51.637Z,10.87
2023-04-20T08:34:21.524Z,7.90
2023-04-20T08:36:49.531Z,8.87
2023-04-20T08:39:21.743Z,8.83
2023-04-20T08:41:54.003Z,9.60
2023-04-20T08:44:22.039Z,7.80
2023-04-20T08:46:51.270Z,15.17
2023-04-20T08:49:21.922Z,8.40
2023-04-20T08:51:50.481Z,7.70
2023-04-20T08:54:18.657Z,10.47
2023-04-20T08:56:48.499Z,8.70
2023-04-20T08:59:17.275Z,5.10
2023-04-20T09:01:46.534Z,10.90
2023-04-20T09:04:19.545Z,8.43
2023-04-20T09:06:52.460Z,7.80
2023-04-20T09:09:21.585Z,6.30
2023-04-20T09:12:00.674Z,7.47
2023-04-20T09:14:28.595Z,9.37
2023-04-20T09:17:02.056Z,8.90
2023-04-20T09:19:31.160Z,6.83
2023-04-20T09:22:03.960Z,7.50
2023-04-20T09:24:33.605Z,7.40
2023-04-20T09:27:02.412Z,6.57
2023-04-20T09:29:31.213Z,6.20
2023-04-20T09:31:59.176Z,12.77
2023-04-20T09:34:27.489Z,8.83
2023-04-20T09:36:56.047Z,7.97
2023-04-20T09:39:27.151Z,11.30
2023-04-20T09:41:59.523Z,9.77
2023-04-20T09:44:27.672Z,8.67
2023-04-20T09:46:55.790Z,7.37
2023-04-20T09:49:23.863Z,10.73
2023-04-20T09:51:52.160Z,8.37
2023-04-20T09:54:20.835Z,11.33
2023-04-20T09:56:50.861Z,9.57
2023-04-20T09:59:20.903Z,7.70
2023-04-20T10:01:49.466Z,11.30
2023-04-20T10:04:17.966Z,11.80
2023-04-20T10:06:55.514Z,9.33
2023-04-20T10:09:26.102Z,10.40
2023-04-20T10:12:07.046Z,8.33
2023-04-20T10:14:35.706Z,10.87
2023-04-20T10:17:05.276Z,10.03
2023-04-20T10:19:40.842Z,10.07
2023-04-20T10:22:10.451Z,9.77
2023-04-20T10:24:39.136Z,8.80
2023-04-20T10:27:19.612Z,8.47
2023-04-20T10:29:47.827Z,10.37
2023-04-20T10:32:26.158Z,10.47
2023-04-20T10:35:06.294Z,7.77
2023-04-20T10:37:35.348Z,7.37
2023-04-20T10:40:07.415Z,8.50
2023-04-20T10:42:44.918Z,6.57
2023-04-20T10:45:13.409Z,12.43
2023-04-20T10:47:41.886Z,9.55
2023-04-20T10:50:11.507Z,7.93
2023-04-20T10:52:41.655Z,8.93
2023-04-20T10:55:20.554Z,9.40
2023-04-20T10:57:49.981Z,7.03
2023-04-20T11:00:20.538Z,9.50
2023-04-20T11:02:53.188Z,10.97
2023-04-20T11:05:22.461Z,9.90
2023-04-20T11:07:54.621Z,10.00
2023-04-20T11:10:24.081Z,7.03
2023-04-20T11:12:53.379Z,5.63
2023-04-20T11:15:32.836Z,9.70
2023-04-20T11:18:08.514Z,9.20
2023-04-20T11:20:37.155Z,7.25
2023-04-20T11:23:06.218Z,9.73
2023-04-20T11:25:34.334Z,7.25
2023-04-20T11:28:11.124Z,8.83
2023-04-20T11:30:41.360Z,9.23
2023-04-20T11:33:10.117Z,8.17
2023-04-20T11:35:38.873Z,9.50
2023-04-20T11:38:07.363Z,8.40
2023-04-20T11:40:35.764Z,10.50
2023-04-20T11:43:05.021Z,8.43
2023-04-20T11:45:36.208Z,5.57
2023-04-20T11:48:05.437Z,7.63
2023-04-20T11:50:33.567Z,6.17
2023-04-20T11:53:03.804Z,6.20
2023-04-20T11:55:31.743Z,8.57
2023-04-20T11:57:59.755Z,7.37
2023-04-20T12:00:27.844Z,6.03
2023-04-20T12:02:57.472Z,7.00
2023-04-20T12:05:26.062Z,7.03
2023-04-20T12:07:54.004Z,6.30
2023-04-20T12:10:22.034Z,6.63
2023-04-20T12:12:50.299Z,6.30
2023-04-20T12:15:18.382Z,7.00
2023-04-20T12:17:46.788Z,8.73
2023-04-20T12:20:16.193Z,7.87
2023-04-20T12:22:44.426Z,8.55
2023-04-20T12:25:14.317Z,7.10
2023-04-20T12:27:42.224Z,8.77
2023-04-20T12:30:11.215Z,7.83
2023-04-20T12:32:39.780Z,7.73
2023-04-20T12:35:09.660Z,10.80
2023-04-20T12:37:39.299Z,7.30
2023-04-20T12:40:08.633Z,7.83
2023-04-20T12:42:36.837Z,5.50
2023-04-20T12:45:05.144Z,8.37
2023-04-20T12:47:33.119Z,8.57
2023-04-20T12:50:01.339Z,6.60
2023-04-20T12:52:30.115Z,7.93
2023-04-20T12:54:59.527Z,9.53
2023-04-20T12:57:27.606Z,6.80
2023-04-20T12:59:56.494Z,7.70
2023-04-20T13:02:24.712Z,8.00
2023-04-20T13:04:53.924Z,7.70
2023-04-20T13:07:21.851Z,10.80
2023-04-20T13:09:50.781Z,7.70
2023-04-20T13:12:20.257Z,6.87
2023-04-20T13:14:48.303Z,9.23
2023-04-20T13:17:16.412Z,8.02
2023-04-20T13:19:44.416Z,8.20
2023-04-20T13:22:16.744Z,9.27
2023-04-20T13:24:46.249Z,7.87
2023-04-20T13:27:14.187Z,9.40
2023-04-20T13:29:43.684Z,9.57
2023-04-20T13:32:12.128Z,8.40
2023-04-20T13:34:40.270Z,8.60
2023-04-20T13:37:08.224Z,8.87
2023-04-20T13:39:36.411Z,10.10
2023-04-20T13:42:04.377Z,9.97
2023-04-20T13:44:32.624Z,7.87
2023-04-20T13:47:01.919Z,9.80
2023-04-20T13:49:29.788Z,13.50
2023-04-20T13:51:58.055Z,11.87
2023-04-20T13:54:25.988Z,13.52
2023-04-20T13:56:54.196Z,12.50
2023-04-20T13:59:22.102Z,10.47
2023-04-20T14:01:50.293Z,12.43
2023-04-20T14:04:19.952Z,12.77
2023-04-20T14:06:48.149Z,13.00
2023-04-20T14:09:16.491Z,12.10
2023-04-20T14:11:44.535Z,13.03
2023-04-20T14:14:12.728Z,16.70
2023-04-20T14:16:44.767Z,12.50
2023-04-20T14:19:12.898Z,17.13
2023-04-20T14:21:44.501Z,13.37
2023-04-20T14:24:12.520Z,17.30
2023-04-20T14:26:41.170Z,15.37
2023-04-20T14:29:09.212Z,14.90
2023-04-20T14:31:37.235Z,16.20
2023-04-20T14:34:05.519Z,17.27
2023-04-20T14:36:34.501Z,19.20
2023-04-20T14:39:03.866Z,13.67
2023-04-20T14:41:33.469Z,16.33
2023-04-20T14:44:01.680Z,14.00
2023-04-20T14:46:29.719Z,15.07
2023-04-20T14:48:57.866Z,18.23
2023-04-20T14:51:27.857Z,19.30
2023-04-20T14:53:56.079Z,23.27
2023-04-20T14:56:25.474Z,14.70
2023-04-20T14:58:54.389Z,14.60
2023-04-20T15:01:22.403Z,18.80
2023-04-20T15:03:50.841Z,18.50
2023-04-20T15:06:19.269Z,16.03
2023-04-20T15:08:47.161Z,11.90
2023-04-20T15:11:15.170Z,13.83
2023-04-20T15:13:44.444Z,17.27
2023-04-20T15:16:12.571Z,16.83
2023-04-20T15:18:40.646Z,15.90
2023-04-20T15:21:08.873Z,19.33
2023-04-20T15:23:36.785Z,16.10
2023-04-20T15:26:04.987Z,18.13
2023-04-20T15:28:33.056Z,15.13
2023-04-20T15:31:02.357Z,15.40
2023-04-20T15:33:31.220Z,14.63
2023-04-20T15:35:59.101Z,12.63
2023-04-20T15:38:27.327Z,17.87
2023-04-20T15:40:55.406Z,15.27
2023-04-20T15:43:23.791Z,14.57
2023-04-20T15:45:52.275Z,11.70
2023-04-20T15:48:21.536Z,15.37
2023-04-20T15:50:52.509Z,13.37
2023-04-20T15:53:21.559Z,13.00
2023-04-20T15:55:49.488Z,14.03
2023-04-20T15:58:17.728Z,16.50
2023-04-20T16:00:46.176Z,14.90
2023-04-20T16:03:14.415Z,15.38
2023-04-20T16:05:43.997Z,16.23
2023-04-20T16:08:13.068Z,12.77
2023-04-20T16:10:41.213Z,16.67
2023-04-20T16:13:09.914Z,17.27
2023-04-20T16:15:41.628Z,15.23
2023-04-20T16:18:09.647Z,13.90
2023-04-20T16:20:39.376Z,15.27
2023-04-20T16:23:10.346Z,16.10
2023-04-20T16:25:38.507Z,13.03
2023-04-20T16:28:06.751Z,17.42
2023-04-20T16:30:37.363Z,16.40
2023-04-20T16:33:05.674Z,14.20
2023-04-20T16:35:33.848Z,13.03
2023-04-20T16:38:01.926Z,14.90
2023-04-20T16:40:31.601Z,16.60
2023-04-20T16:43:01.738Z,15.53
2023-04-20T16:45:33.207Z,14.20
2023-04-20T16:48:01.228Z,16.50
2023-04-20T16:50:29.502Z,18.07
2023-04-20T16:52:57.431Z,17.87
2023-04-20T16:55:26.228Z,14.40
2023-04-20T16:58:00.239Z,15.07
2023-04-20T17:00:33.021Z,16.33
2023-04-20T17:03:02.050Z,17.00
2023-04-20T17:05:30.487Z,23.37
2023-04-20T17:07:58.485Z,17.13
2023-04-20T17:10:26.576Z,17.13
2023-04-20T17:12:55.907Z,16.80
2023-04-20T17:15:24.103Z,16.83
2023-04-20T17:17:52.171Z,14.90
2023-04-20T17:20:20.237Z,15.43
2023-04-20T17:22:48.141Z,16.87
2023-04-20T17:25:16.520Z,18.33
2023-04-20T17:27:44.517Z,17.43
2023-04-20T17:30:15.077Z,17.30
2023-04-20T17:32:43.544Z,18.13
2023-04-20T17:35:11.777Z,16.10
2023-04-20T17:37:39.779Z,18.40
2023-04-20T17:40:09.125Z,20.23
2023-04-20T17:42:41.078Z,18.27
2023-04-20T17:45:09.751Z,19.60
2023-04-20T17:47:39.342Z,21.07
2023-04-20T17:50:08.851Z,20.23
2023-04-20T17:52:36.777Z,24.23
2023-04-20T17:55:05.189Z,16.07
2023-04-20T17:57:34.099Z,19.20
2023-04-20T18:00:02.246Z,18.90
2023-04-20T18:02:30.601Z,20.97
2023-04-20T18:05:00.902Z,16.80
2023-04-20T18:07:29.430Z,16.00
2023-04-20T18:09:57.645Z,20.77
2023-04-20T18:12:25.529Z,18.23
2023-04-20T18:14:53.408Z,18.30
2023-04-20T18:17:21.506Z,18.77
2023-04-20T18:19:49.426Z,15.33
2023-04-20T18:22:19.053Z,14.03
2023-04-20T18:24:46.918Z,21.03
2023-04-20T18:27:14.964Z,19.53
2023-04-20T18:29:42.915Z,18.80
2023-04-20T18:32:10.999Z,19.10
2023-04-20T18:34:38.921Z,14.97
2023-04-20T18:37:07.562Z,19.20
2023-04-20T18:39:37.380Z,16.47
2023-04-20T18:42:05.582Z,18.02
2023-04-20T18:44:34.265Z,17.53
2023-04-20T18:47:02.396Z,17.87
2023-04-20T18:49:31.944Z,16.00
2023-04-20T18:52:00.803Z,15.97
2023-04-20T18:54:28.736Z,16.10
2023-04-20T18:56:58.409Z,16.73
2023-04-20T18:59:26.721Z,17.10
2023-04-20T19:01:54.743Z,14.00
2023-04-20T19:04:23.592Z,15.03
2023-04-20T19:06:51.775Z,15.17
2023-04-20T19:09:19.856Z,17.65
2023-04-20T19:11:47.783Z,20.50
2023-04-20T19:14:17.354Z,17.50
2023-04-20T19:16:45.725Z,15.60
2023-04-20T19:19:13.828Z,22.20
2023-04-20T19:21:41.811Z,18.60
2023-04-20T19:24:09.880Z,15.83
2023-04-20T19:26:37.986Z,22.23
2023-04-20T19:29:06.059Z,15.63
2023-04-20T19:31:39.924Z,16.53
2023-04-20T19:34:08.382Z,18.53
2023-04-20T19:36:36.372Z,17.87
2023-04-20T19:39:06.927Z,15.03
2023-04-20T19:41:35.199Z,15.70
2023-04-20T19:44:05.049Z,16.00
2023-04-20T19:46:33.217Z,17.57
2023-04-20T19:49:02.920Z,17.07
2023-04-20T19:51:32.649Z,17.50
2023-04-20T19:54:01.729Z,16.30
2023-04-20T19:56:29.808Z,15.53
2023-04-20T19:58:57.801Z,24.17
2023-04-20T20:01:25.932Z,22.27
2023-04-20T20:03:54.186Z,14.40
2023-04-20T20:06:23.717Z,29.50
2023-04-20T20:08:51.688Z,26.00
2023-04-20T20:11:22.294Z,23.20
2023-04-20T20:13:50.261Z,19.20
2023-04-20T20:16:18.549Z,28.77
2023-04-20T20:18:48.467Z,20.90
2023-04-20T20:21:16.525Z,18.57
2023-04-20T20:23:46.087Z,22.93
2023-04-20T20:26:14.103Z,26.70
2023-04-20T20:28:42.853Z,19.77
2023-04-20T20:31:10.899Z,16.45
2023-04-20T20:33:39.387Z,17.93
2023-04-20T20:36:07.479Z,19.50
2023-04-20T20:38:35.407Z,19.40
2023-04-20T20:41:06.681Z,19.73
2023-04-20T20:43:34.898Z,19.77
2023-04-20T20:46:02.769Z,20.83
2023-04-20T20:48:30.680Z,18.80
2023-04-20T20:50:58.859Z,19.33
2023-04-20T20:53:26.728Z,19.00
2023-04-20T20:55:56.646Z,19.60
2023-04-20T20:58:26.170Z,17.23
2023-04-20T21:00:54.195Z,16.83
2023-04-20T21:03:22.433Z,15.20
2023-04-20T21:05:50.672Z,16.53
2023-04-20T21:08:18.795Z,22.17
2023-04-20T21:10:47.969Z,20.33
2023-04-20T21:13:15.905Z,16.27
2023-04-20T21:15:45.491Z,19.63
2023-04-20T21:18:13.598Z,20.23
2023-04-20T21:20:41.661Z,20.95
2023-04-20T21:23:09.548Z,22.43
2023-04-20T21:25:37.657Z,17.17
2023-04-20T21:28:05.865Z,18.35
2023-04-20T21:30:34.075Z,20.03
2023-04-20T21:33:03.351Z,18.47
2023-04-20T21:35:31.341Z,18.93
2023-04-20T21:37:59.885Z,21.30
2023-04-20T21:40:27.766Z,16.63
2023-04-20T21:42:55.827Z,19.23
2023-04-20T21:45:23.853Z,21.02
2023-04-20T21:47:52.118Z,21.80
2023-04-20T21:50:27.005Z,18.80
2023-04-20T21:52:55.137Z,19.90
2023-04-20T21:55:23.402Z,20.37
2023-04-20T21:57:52.616Z,18.30
2023-04-20T22:00:20.931Z,22.57
2023-04-20T22:02:50.314Z,19.93
2023-04-20T22:05:18.736Z,20.23
2023-04-20T22:07:47.993Z,21.80
2023-04-20T22:10:16.320Z,24.40
2023-04-20T22:12:44.277Z,19.83
2023-04-20T22:15:14.316Z,25.37
2023-04-20T22:17:45.173Z,23.30
2023-04-20T22:20:14.788Z,20.07
2023-04-20T22:22:43.088Z,21.77
2023-04-20T22:25:13.225Z,26.10
2023-04-20T22:27:41.327Z,21.30
2023-04-20T22:30:10.067Z,21.70
2023-04-20T22:32:38.545Z,20.27
2023-04-20T22:35:07.693Z,21.00
2023-04-20T22:37:35.949Z,24.97
2023-04-20T22:40:05.951Z,18.07
2023-04-20T22:42:35.974Z,24.60
2023-04-20T22:45:04.005Z,17.90
2023-04-20T22:47:32.308Z,20.57
2023-04-20T22:50:00.322Z,18.43
2023-04-20T22:52:28.247Z,20.13
2023-04-20T22:54:56.396Z,22.23
2023-04-20T22:57:24.364Z,24.40
2023-04-20T22:59:53.764Z,21.30
2023-04-20T23:02:21.989Z,23.40
2023-04-20T23:04:50.002Z,21.07
2023-04-20T23:07:19.505Z,24.00
2023-04-20T23:09:48.177Z,22.83
2023-04-20T23:12:16.698Z,27.60
2023-04-20T23:14:44.765Z,23.80
2023-04-20T23:17:14.035Z,18.63
2023-04-20T23:19:42.206Z,19.83
2023-04-20T23:22:10.406Z,23.03
2023-04-20T23:24:38.351Z,25.23
2023-04-20T23:27:06.493Z,24.30
2023-04-20T23:29:34.597Z,24.17
2023-04-20T23:32:02.699Z,18.00
2023-04-20T23:34:32.291Z,20.17
2023-04-20T23:37:00.377Z,20.17
2023-04-20T23:39:28.317Z,22.77
2023-04-20T23:41:56.484Z,17.20
2023-04-20T23:44:24.366Z,20.93
2023-04-20T23:46:52.242Z,22.33
2023-04-20T23:49:21.030Z,17.17
2023-04-20T23:51:50.514Z,19.20
2023-04-20T23:54:18.374Z,19.87
2023-04-20T23:56:46.446Z,18.00
2023-04-20T23:59:14.349Z,21.00
